Time;durP1;ratioP1;P1;durP2;ratioP2;P2;SDS_P1;SDS_P2;PMS_P1;PMS_P2;Temp;Humidity;BMP_temperature;BMP_pressure;BME280_temperature;BME280_humidity;BME280_pressure;Samples;Min_cycle;Max_cycle;Signal;HPM_P1;HPM_P2
2021/08/19 00:02:16;;;;;;;;;;;;;;;22.57;46.60;100662.28;4937845;28;98819;-76
2021/08/19 00:04:43;;;;;;;;;;;;;;;22.64;46.63;100657.22;4948432;28;97753;-76
2021/08/19 00:07:09;;;;;;;;;;;;;;;22.22;47.82;100659.06;4956415;28;99181;-77
2021/08/19 00:09:36;;;;;;;;;;;;;;;22.19;48.09;100656.63;4956317;28;99962;-76
2021/08/19 00:12:02;;;;;;;;;;;;;;;22.15;48.03;100663.25;4960584;28;96774;-78
2021/08/19 00:14:29;;;;;;;;;;;;;;;22.43;47.55;100651.84;4958772;28;96767;-76
2021/08/19 00:16:55;;;;;;;;;;;;;;;22.34;47.98;100652.63;4949726;28;98870;-76
2021/08/19 00:19:23;;;;;;;;;;;;;;;22.40;47.89;100649.41;4939876;28;99179;-78
2021/08/19 00:21:49;;;;;;;;;;;;;;;22.12;48.31;100648.22;4959632;28;96814;-78
2021/08/19 00:24:15;;;;;;;;;;;;;;;22.08;48.64;100651.31;4959591;28;97038;-77
2021/08/19 00:26:42;;;;;;;;;;;;;;;22.42;47.87;100654.66;4955545;28;99369;-77
2021/08/19 00:29:08;;;;;;;;;;;;;;;22.35;48.21;100651.63;4957188;28;101680;-78
2021/08/19 00:31:34;;;;;;;;;;;;;;;21.99;49.25;100650.22;4940045;28;97081;-77
2021/08/19 00:34:00;;;;;;;;;;;;;;;22.09;49.08;100656.56;4946836;28;96884;-78
2021/08/19 00:36:28;;;;;;;;;;;;;;;22.20;48.98;100656.50;4958471;28;98959;-78
2021/08/19 00:38:54;;;;;;;;;;;;;;;22.00;49.77;100651.94;4959625;28;99416;-77
2021/08/19 00:41:21;;;;;;;;;;;;;;;21.75;50.38;100653.13;4960382;28;96869;-78
2021/08/19 00:43:49;;;;;;;;;;;;;;;21.84;50.08;100655.06;4960221;28;97274;-78
2021/08/19 00:46:25;;;;;;;;;;;;;;;22.24;49.14;100657.09;4957051;28;99491;-77
2021/08/19 00:48:52;;;;;;;;;;;;;;;22.52;48.40;100659.09;4958028;28;99390;-78
2021/08/19 00:51:18;;;;;;;;;;;;;;;22.17;49.25;100655.91;4952576;28;96862;-77
2021/08/19 00:53:46;;;;;;;;;;;;;;;22.04;49.73;100649.88;4945804;28;96916;-77
2021/08/19 00:56:12;;;;;;;;;;;;;;;22.09;49.58;100658.41;4957786;28;99367;-77
2021/08/19 00:58:39;;;;;;;;;;;;;;;21.99;50.04;100658.31;4958701;28;99249;-78
2021/08/19 01:01:05;;;;;;;;;;;;;;;22.17;49.50;100651.38;4959803;28;96792;-77
2021/08/19 01:03:32;;;;;;;;;;;;;;;21.71;50.85;100653.53;4951129;28;97527;-77
2021/08/19 01:05:58;;;;;;;;;;;;;;;22.23;49.46;100660.78;4948987;28;99063;-78
2021/08/19 01:08:24;;;;;;;;;;;;;;;22.21;49.47;100652.81;4956737;28;99445;-77
2021/08/19 01:10:52;;;;;;;;;;;;;;;22.45;48.73;100655.22;4959613;28;96664;-78
2021/08/19 01:13:18;;;;;;;;;;;;;;;22.34;49.09;100662.53;4958367;28;96866;-77
2021/08/19 01:15:44;;;;;;;;;;;;;;;22.34;49.06;100651.75;4950993;28;98889;-77
2021/08/19 01:18:11;;;;;;;;;;;;;;;22.35;49.04;100648.94;4939326;28;98829;-77
2021/08/19 01:20:37;;;;;;;;;;;;;;;22.21;49.32;100651.97;4941570;28;96992;-77
2021/08/19 01:23:04;;;;;;;;;;;;;;;22.17;49.48;100655.91;4959299;28;96981;-77
2021/08/19 01:25:30;;;;;;;;;;;;;;;22.34;49.08;100649.94;4955384;28;98842;-77
2021/08/19 01:27:58;;;;;;;;;;;;;;;22.31;49.01;100649.34;4939958;28;99165;-78
2021/08/19 01:30:25;;;;;;;;;;;;;;;21.47;51.00;100646.50;4946014;28;96892;-77
2021/08/19 01:32:52;;;;;;;;;;;;;;;22.04;49.81;100653.41;4959278;28;96992;-77
2021/08/19 01:35:19;;;;;;;;;;;;;;;22.15;49.66;100652.50;4951316;28;99159;-77
2021/08/19 01:37:46;;;;;;;;;;;;;;;22.47;48.75;100655.09;4958786;28;100580;-77
2021/08/19 01:40:13;;;;;;;;;;;;;;;22.36;49.12;100650.66;4969498;28;97077;-77
2021/08/19 01:42:39;;;;;;;;;;;;;;;22.24;49.54;100652.56;4978688;28;97024;-78
2021/08/19 01:45:07;;;;;;;;;;;;;;;22.29;49.40;100648.63;4962853;28;98975;-78
2021/08/19 01:47:33;;;;;;;;;;;;;;;22.37;49.21;100644.31;4948246;28;99193;-77
2021/08/19 01:50:00;;;;;;;;;;;;;;;22.20;49.44;100647.56;4947252;28;97593;-76
2021/08/19 01:52:26;;;;;;;;;;;;;;;21.87;50.33;100649.41;4943720;28;96838;-77
2021/08/19 01:54:52;;;;;;;;;;;;;;;21.85;50.35;100650.53;4946656;28;99398;-78
2021/08/19 01:57:18;;;;;;;;;;;;;;;22.20;49.36;100648.41;4949537;28;99129;-78
2021/08/19 01:59:45;;;;;;;;;;;;;;;22.28;49.24;100661.22;4957554;28;97777;-78
2021/08/19 02:02:12;;;;;;;;;;;;;;;22.30;49.06;100651.19;4947047;28;96952;-77
2021/08/19 02:04:39;;;;;;;;;;;;;;;22.09;49.48;100653.88;4956424;28;98890;-77
2021/08/19 02:07:05;;;;;;;;;;;;;;;22.12;49.19;100658.16;4952154;28;98864;-76
2021/08/19 02:09:31;;;;;;;;;;;;;;;21.92;49.57;100650.88;4944551;28;97077;-78
2021/08/19 02:11:58;;;;;;;;;;;;;;;22.01;49.45;100644.72;4946139;28;97707;-78
2021/08/19 02:14:24;;;;;;;;;;;;;;;21.79;50.38;100649.19;4944589;28;98865;-77
2021/08/19 02:16:50;;;;;;;;;;;;;;;21.97;49.53;100651.38;4938271;28;99260;-78
2021/08/19 02:19:18;;;;;;;;;;;;;;;22.00;49.24;100643.03;4939067;28;96750;-78
2021/08/19 02:21:44;;;;;;;;;;;;;;;21.80;50.01;100647.34;4952936;28;97123;-78
2021/08/19 02:24:10;;;;;;;;;;;;;;;22.10;48.91;100633.19;4942829;28;98844;-77
2021/08/19 02:26:37;;;;;;;;;;;;;;;22.09;49.19;100653.88;4954663;28;99379;-77
2021/08/19 02:29:03;;;;;;;;;;;;;;;22.27;48.83;100636.16;4939415;28;96869;-78
2021/08/19 02:31:30;;;;;;;;;;;;;;;22.01;49.43;100639.34;4943666;28;97249;-77
2021/08/19 02:33:56;;;;;;;;;;;;;;;22.16;49.03;100636.22;4944498;28;98916;-77
2021/08/19 02:36:24;;;;;;;;;;;;;;;22.12;49.00;100648.22;4940145;28;98997;-78
2021/08/19 02:38:50;;;;;;;;;;;;;;;22.37;48.54;100647.00;4941771;28;97077;-77
2021/08/19 02:41:16;;;;;;;;;;;;;;;22.09;49.36;100632.34;4955822;28;97187;-78
2021/08/19 02:43:43;;;;;;;;;;;;;;;22.09;49.24;100639.56;4957912;28;98817;-77
2021/08/19 02:46:10;;;;;;;;;;;;;;;21.63;50.39;100643.41;4956868;28;99224;-76
2021/08/19 02:48:37;;;;;;;;;;;;;;;21.90;49.65;100634.84;4957691;28;96918;-77
2021/08/19 02:51:03;;;;;;;;;;;;;;;21.84;49.96;100641.63;4956606;28;97025;-77
2021/08/19 02:53:31;;;;;;;;;;;;;;;21.62;50.47;100630.06;4938791;28;98642;-77
2021/08/19 02:55:57;;;;;;;;;;;;;;;21.90;49.61;100636.69;4954094;28;99257;-76
2021/08/19 02:58:24;;;;;;;;;;;;;;;21.75;49.71;100628.94;4956459;28;97153;-78
2021/08/19 03:00:50;;;;;;;;;;;;;;;21.94;49.28;100628.22;4956510;28;98731;-77
2021/08/19 03:03:17;;;;;;;;;;;;;;;21.50;50.51;100637.31;4950967;28;99040;-77
2021/08/19 03:05:43;;;;;;;;;;;;;;;21.98;49.11;100634.25;4946213;28;98099;-78
2021/08/19 03:08:09;;;;;;;;;;;;;;;21.99;49.15;100630.59;4953483;28;96841;-77
2021/08/19 03:10:38;;;;;;;;;;;;;;;21.60;50.38;100632.03;4956230;28;96871;-77
2021/08/19 03:13:04;;;;;;;;;;;;;;;21.84;49.38;100628.16;4943397;28;99210;-78
2021/08/19 03:15:30;;;;;;;;;;;;;;;21.80;49.71;100623.16;4946345;28;99474;-78
2021/08/19 03:17:56;;;;;;;;;;;;;;;21.88;49.47;100628.75;4957516;28;97086;-77
2021/08/19 03:20:23;;;;;;;;;;;;;;;21.78;49.74;100627.81;4956806;28;96853;-77
2021/08/19 03:22:51;;;;;;;;;;;;;;;21.52;50.60;100621.94;4951261;28;99302;-77
2021/08/19 03:25:17;;;;;;;;;;;;;;;21.88;49.49;100621.53;4943839;28;99253;-77
2021/08/19 03:27:45;;;;;;;;;;;;;;;22.06;49.27;100619.13;4959025;28;96901;-76
2021/08/19 03:30:12;;;;;;;;;;;;;;;22.21;48.85;100620.53;4960132;28;97064;-77
2021/08/19 03:32:40;;;;;;;;;;;;;;;21.99;49.31;100626.03;4946107;28;99201;-77
2021/08/19 03:35:06;;;;;;;;;;;;;;;21.85;49.75;100627.19;4961227;28;97929;-77
2021/08/19 03:37:33;;;;;;;;;;;;;;;21.68;50.40;100633.09;4959090;28;97608;-77
2021/08/19 03:40:00;;;;;;;;;;;;;;;21.95;49.74;100639.84;4949525;28;96813;-78
2021/08/19 03:42:26;;;;;;;;;;;;;;;21.67;50.59;100628.72;4953258;28;97919;-78
2021/08/19 03:44:54;;;;;;;;;;;;;;;21.46;51.11;100633.19;4959260;28;97585;-77
2021/08/19 03:47:20;;;;;;;;;;;;;;;21.22;51.89;100637.88;4961868;28;97058;-77
2021/08/19 03:49:47;;;;;;;;;;;;;;;21.63;50.84;100640.72;4962812;28;96874;-77
2021/08/19 03:52:13;;;;;;;;;;;;;;;21.39;51.26;100638.22;4948530;28;101476;-75
2021/08/19 03:54:39;;;;;;;;;;;;;;;21.76;50.31;100644.09;4961929;28;99348;-77
2021/08/19 03:57:05;;;;;;;;;;;;;;;21.90;50.06;100636.69;4955380;28;96997;-77
2021/08/19 03:59:32;;;;;;;;;;;;;;;22.04;49.32;100639.97;4962506;28;97504;-77
2021/08/19 04:01:59;;;;;;;;;;;;;;;21.76;49.87;100646.78;4962384;28;98987;-76
2021/08/19 04:04:26;;;;;;;;;;;;;;;21.39;51.05;100653.50;4962912;28;99344;-76
2021/08/19 04:06:52;;;;;;;;;;;;;;;21.26;51.47;100645.59;4951371;28;96907;-77
2021/08/19 04:09:18;;;;;;;;;;;;;;;21.29;51.36;100645.31;4947067;28;97044;-78
2021/08/19 04:11:44;;;;;;;;;;;;;;;21.54;50.56;100638.78;4946411;28;98387;-77
2021/08/19 04:14:11;;;;;;;;;;;;;;;21.50;50.79;100649.91;4962661;28;98027;-78
2021/08/19 04:16:37;;;;;;;;;;;;;;;21.69;50.09;100640.19;4952123;28;97396;-77
2021/08/19 04:19:05;;;;;;;;;;;;;;;21.56;50.25;100644.88;4949831;28;98777;-77
2021/08/19 04:21:31;;;;;;;;;;;;;;;21.60;50.30;100638.25;4958848;28;98866;-75
2021/08/19 04:23:57;;;;;;;;;;;;;;;21.25;50.64;100651.06;4967335;28;98769;-77
2021/08/19 04:26:24;;;;;;;;;;;;;;;21.25;50.97;100656.44;4957056;28;97057;-76
2021/08/19 04:28:50;;;;;;;;;;;;;;;21.38;50.21;100654.47;4959230;28;97133;-76
2021/08/19 04:31:16;;;;;;;;;;;;;;;21.49;50.24;100646.38;4954019;28;98243;-75
2021/08/19 04:33:42;;;;;;;;;;;;;;;21.52;49.93;100658.72;4957879;28;98779;-77
2021/08/19 04:36:10;;;;;;;;;;;;;;;21.47;49.62;100659.94;4956520;28;96976;-78
2021/08/19 04:38:36;;;;;;;;;;;;;;;21.50;49.86;100661.53;4956133;28;97113;-76
2021/08/19 04:41:03;;;;;;;;;;;;;;;21.51;50.13;100659.69;4970830;28;99013;-77
2021/08/19 04:43:30;;;;;;;;;;;;;;;21.53;49.80;100661.25;4944397;28;99198;-76
2021/08/19 04:45:56;;;;;;;;;;;;;;;21.62;49.89;100668.56;4956060;28;97046;-77
2021/08/19 04:48:23;;;;;;;;;;;;;;;21.57;49.68;100665.41;4956581;28;97008;-77
2021/08/19 04:50:49;;;;;;;;;;;;;;;21.44;50.39;100675.47;4954733;28;101074;-76
2021/08/19 04:53:16;;;;;;;;;;;;;;;21.83;49.20;100677.56;4962102;28;98994;-76
2021/08/19 04:55:43;;;;;;;;;;;;;;;21.13;51.05;100677.09;4949469;28;96966;-76
2021/08/19 04:58:09;;;;;;;;;;;;;;;21.14;51.48;100680.59;4955607;28;96922;-77
2021/08/19 05:00:35;;;;;;;;;;;;;;;20.91;52.46;100690.50;4956859;28;98623;-77
2021/08/19 05:03:02;;;;;;;;;;;;;;;21.36;51.42;100678.78;4956652;28;98024;-77
2021/08/19 05:05:28;;;;;;;;;;;;;;;21.66;50.38;100682.63;4955413;28;96757;-77
2021/08/19 05:07:54;;;;;;;;;;;;;;;21.50;50.99;100680.34;4952637;28;96941;-75
2021/08/19 05:10:22;;;;;;;;;;;;;;;21.69;50.56;100688.59;4954356;28;98135;-78
2021/08/19 05:12:49;;;;;;;;;;;;;;;21.46;51.28;100689.66;4955854;28;99415;-79
2021/08/19 05:15:15;;;;;;;;;;;;;;;21.59;51.01;100693.03;4957459;28;96855;-76
2021/08/19 05:17:41;;;;;;;;;;;;;;;21.44;51.44;100694.28;4953928;28;96969;-77
2021/08/19 05:20:08;;;;;;;;;;;;;;;21.72;50.89;100693.75;4948655;28;99014;-76
2021/08/19 05:22:35;;;;;;;;;;;;;;;21.04;52.72;100704.66;4939681;28;101794;-77
2021/08/19 05:25:01;;;;;;;;;;;;;;;21.73;50.92;100700.81;4950670;28;97218;-76
2021/08/19 05:27:29;;;;;;;;;;;;;;;21.56;51.46;100704.03;4948325;28;98458;-76
2021/08/19 05:29:55;;;;;;;;;;;;;;;21.52;51.95;100701.72;4948062;28;98921;-77
2021/08/19 05:32:21;;;;;;;;;;;;;;;21.49;51.57;100702.81;4953348;28;99222;-76
2021/08/19 05:34:48;;;;;;;;;;;;;;;21.52;51.74;100707.09;4949482;28;97203;-76
2021/08/19 05:37:14;;;;;;;;;;;;;;;21.77;51.49;100704.97;4954224;28;97121;-77
2021/08/19 05:39:40;;;;;;;;;;;;;;;21.13;53.04;100703.09;4949169;28;99004;-77
2021/08/19 05:42:07;;;;;;;;;;;;;;;21.79;51.21;100694.09;4962365;28;98072;-77
2021/08/19 05:44:36;;;;;;;;;;;;;;;21.71;51.17;100701.94;4956864;28;97271;-77
2021/08/19 05:47:04;;;;;;;;;;;;;;;21.88;50.60;100696.84;4941055;28;97108;-77
2021/08/19 05:49:30;;;;;;;;;;;;;;;22.31;49.56;100698.66;4950925;28;99247;-77
2021/08/19 05:51:57;;;;;;;;;;;;;;;21.96;50.49;100706.16;4948982;28;99308;-77
2021/08/19 05:54:23;;;;;;;;;;;;;;;22.33;49.51;100696.69;4951291;28;97128;-78
2021/08/19 05:56:49;;;;;;;;;;;;;;;22.23;49.50;100707.38;4948758;28;97166;-77
2021/08/19 05:59:16;;;;;;;;;;;;;;;22.43;49.15;100710.22;4947917;28;98896;-77
2021/08/19 06:01:43;;;;;;;;;;;;;;;22.38;49.37;100713.31;4952683;28;99182;-76
2021/08/19 06:04:09;;;;;;;;;;;;;;;22.06;49.87;100712.47;4948672;28;97300;-76
2021/08/19 06:06:36;;;;;;;;;;;;;;;21.50;51.21;100723.34;4947546;28;99259;-76
2021/08/19 06:09:02;;;;;;;;;;;;;;;21.53;51.35;100723.09;4949400;28;99098;-76
2021/08/19 06:11:28;;;;;;;;;;;;;;;21.60;51.09;100727.00;4948169;28;99223;-76
2021/08/19 06:13:54;;;;;;;;;;;;;;;21.75;50.62;100717.69;4949747;28;97122;-76
2021/08/19 06:16:21;;;;;;;;;;;;;;;21.65;51.53;100723.94;4950151;28;97217;-76
2021/08/19 06:18:48;;;;;;;;;;;;;;;22.12;49.95;100725.44;4951725;28;98843;-76
2021/08/19 06:21:15;;;;;;;;;;;;;;;22.22;49.74;100735.28;4948230;28;99582;-76
2021/08/19 06:23:41;;;;;;;;;;;;;;;22.25;49.73;100729.63;4947459;28;98744;-76
2021/08/19 06:26:08;;;;;;;;;;;;;;;22.56;48.88;100732.41;4950031;28;97166;-76
2021/08/19 06:28:35;;;;;;;;;;;;;;;21.89;50.44;100732.69;4947975;28;100813;-77
2021/08/19 06:31:01;;;;;;;;;;;;;;;21.33;52.05;100734.63;4954797;28;99321;-77
2021/08/19 06:33:27;;;;;;;;;;;;;;;21.65;52.24;100732.88;4953104;28;97643;-77
2021/08/19 06:35:55;;;;;;;;;;;;;;;21.81;51.33;100738.69;4948957;28;98048;-77
2021/08/19 06:38:21;;;;;;;;;;;;;;;22.32;49.75;100734.50;4947135;28;98860;-76
2021/08/19 06:40:47;;;;;;;;;;;;;;;22.65;48.76;100737.00;4948432;28;99217;-76
2021/08/19 06:43:14;;;;;;;;;;;;;;;22.26;49.55;100735.84;4954909;28;97195;-76
2021/08/19 06:45:40;;;;;;;;;;;;;;;22.71;48.67;100735.63;4951867;28;97511;-76
2021/08/19 06:48:06;;;;;;;;;;;;;;;22.72;48.61;100731.94;4947995;28;98906;-76
2021/08/19 06:50:33;;;;;;;;;;;;;;;22.38;49.68;100734.00;4945875;28;99329;-77
2021/08/19 06:53:00;;;;;;;;;;;;;;;22.35;49.87;100736.94;4949896;28;97148;-77
2021/08/19 06:55:28;;;;;;;;;;;;;;;21.58;51.41;100731.66;4947327;28;97242;-76
2021/08/19 06:57:55;;;;;;;;;;;;;;;21.49;52.03;100737.78;4950695;28;99366;-77
2021/08/19 07:00:21;;;;;;;;;;;;;;;21.60;52.04;100734.19;4953858;28;96808;-77
2021/08/19 07:02:47;;;;;;;;;;;;;;;22.34;50.06;100738.75;4951339;28;100142;-78
2021/08/19 07:05:14;;;;;;;;;;;;;;;22.15;50.29;100736.78;4953727;28;96979;-77
2021/08/19 07:07:41;;;;;;;;;;;;;;;22.37;49.69;100741.22;4952232;28;98952;-77
2021/08/19 07:10:09;;;;;;;;;;;;;;;22.20;50.66;100750.69;4945391;28;97849;-77
2021/08/19 07:12:36;;;;;;;;;;;;;;;22.52;49.50;100752.50;4945182;28;98507;-77
2021/08/19 07:15:02;;;;;;;;;;;;;;;22.33;49.65;100745.13;4951926;28;97472;-77
2021/08/19 07:17:28;;;;;;;;;;;;;;;22.37;49.66;100745.75;4951665;28;99105;-77
2021/08/19 07:19:55;;;;;;;;;;;;;;;21.88;51.06;100742.56;4947477;28;97991;-77
2021/08/19 07:22:21;;;;;;;;;;;;;;;22.53;49.37;100746.97;4947136;28;97677;-77
2021/08/19 07:24:47;;;;;;;;;;;;;;;22.94;48.53;100748.00;4951534;28;97159;-77
2021/08/19 07:27:15;;;;;;;;;;;;;;;22.73;48.80;100741.75;4951019;28;99013;-77
2021/08/19 07:29:41;;;;;;;;;;;;;;;22.08;50.39;100740.97;4946473;28;98850;-76
2021/08/19 07:32:08;;;;;;;;;;;;;;;21.90;51.03;100746.97;4953950;28;97381;-76
2021/08/19 07:34:34;;;;;;;;;;;;;;;21.78;51.70;100746.16;4953969;28;96889;-76
2021/08/19 07:37:01;;;;;;;;;;;;;;;22.65;49.54;100754.00;4949299;28;98965;-75
2021/08/19 07:39:27;;;;;;;;;;;;;;;22.89;48.57;100750.25;4946596;28;99177;-76
2021/08/19 07:41:53;;;;;;;;;;;;;;;23.08;48.15;100755.72;4948078;28;97710;-77
2021/08/19 07:44:21;;;;;;;;;;;;;;;22.72;48.95;100761.56;4944663;28;97170;-77
2021/08/19 07:46:47;;;;;;;;;;;;;;;22.57;49.21;100750.28;4954479;28;99382;-77
2021/08/19 07:49:16;;;;;;;;;;;;;;;23.13;47.96;100747.22;4951946;28;98256;-76
2021/08/19 07:51:42;;;;;;;;;;;;;;;23.23;47.52;100751.69;4954688;28;96853;-77
2021/08/19 07:54:08;;;;;;;;;;;;;;;23.62;46.88;100758.09;4950146;28;97016;-77
2021/08/19 07:56:34;;;;;;;;;;;;;;;23.05;47.88;100753.28;4946008;28;98767;-78
2021/08/19 07:59:01;;;;;;;;;;;;;;;23.12;47.09;100759.84;4944690;28;98892;-76
2021/08/19 08:01:28;;;;;;;;;;;;;;;22.75;48.27;100759.50;4944017;28;97071;-77
2021/08/19 08:03:55;;;;;;;;;;;;;;;22.81;48.01;100758.97;4937811;28;99306;-76
2021/08/19 08:06:21;;;;;;;;;;;;;;;23.21;47.14;100763.59;4946008;28;99385;-76
2021/08/19 08:08:47;;;;;;;;;;;;;;;23.49;46.58;100767.44;4946534;28;98946;-76
2021/08/19 08:11:14;;;;;;;;;;;;;;;23.12;47.39;100773.31;4947980;28;97610;-76
2021/08/19 08:13:40;;;;;;;;;;;;;;;23.52;46.46;100768.00;4950522;28;96927;-76
2021/08/19 08:16:06;;;;;;;;;;;;;;;23.66;46.21;100772.16;4950222;28;99330;-76
2021/08/19 08:18:34;;;;;;;;;;;;;;;23.17;46.88;100771.06;4950894;28;99369;-76
2021/08/19 08:21:02;;;;;;;;;;;;;;;23.88;45.08;100773.78;4952771;28;97063;-75
2021/08/19 08:23:32;;;;;;;;;;;;;;;23.88;45.33;100779.19;4953044;28;97052;-75
2021/08/19 08:25:59;;;;;;;;;;;;;;;23.61;45.32;100782.50;4946328;28;97871;-74
2021/08/19 08:28:28;;;;;;;;;;;;;;;23.66;45.27;100781.09;4953049;28;97814;-77
2021/08/19 08:30:54;;;;;;;;;;;;;;;23.22;46.13;100779.63;4954636;28;97252;-76
2021/08/19 08:33:21;;;;;;;;;;;;;;;23.59;45.67;100784.50;4957239;28;97455;-77
2021/08/19 08:35:49;;;;;;;;;;;;;;;23.85;45.11;100788.41;4957690;28;99763;-76
2021/08/19 08:38:17;;;;;;;;;;;;;;;23.48;45.56;100796.25;4957173;28;98939;-77
2021/08/19 08:40:45;;;;;;;;;;;;;;;23.70;45.30;100796.03;4956666;28;97418;-76
2021/08/19 08:43:12;;;;;;;;;;;;;;;22.72;47.28;100797.44;4959199;28;96849;-76
2021/08/19 08:45:39;;;;;;;;;;;;;;;23.61;45.44;100799.56;4957929;28;98435;-76
2021/08/19 08:48:06;;;;;;;;;;;;;;;23.37;45.79;100801.69;4955518;28;99129;-75
2021/08/19 08:50:34;;;;;;;;;;;;;;;23.87;44.79;100802.63;4959657;28;96815;-77
2021/08/19 08:53:01;;;;;;;;;;;;;;;24.11;44.25;100811.19;4950915;28;97205;-77
2021/08/19 08:55:28;;;;;;;;;;;;;;;24.56;43.50;100806.13;4957595;28;101793;-76
2021/08/19 08:57:55;;;;;;;;;;;;;;;24.92;42.45;100812.66;4947935;28;99627;-76
2021/08/19 09:00:21;;;;;;;;;;;;;;;24.27;43.46;100807.97;4949903;28;97358;-77
2021/08/19 09:02:48;;;;;;;;;;;;;;;24.85;42.37;100827.72;4950496;28;98965;-76
2021/08/19 09:05:18;;;;;;;;;;;;;;;25.02;41.86;100818.03;4951893;28;99050;-76
2021/08/19 09:07:44;;;;;;;;;;;;;;;25.24;41.57;100819.56;4952889;28;99300;-77
2021/08/19 09:10:13;;;;;;;;;;;;;;;25.18;41.81;100828.25;4949102;28;96954;-76
2021/08/19 09:12:40;;;;;;;;;;;;;;;25.15;41.66;100828.53;4950400;28;98476;-76
2021/08/19 09:15:08;;;;;;;;;;;;;;;23.95;43.32;100826.22;4952401;28;99128;-77
2021/08/19 09:17:44;;;;;;;;;;;;;;;23.90;42.83;100829.31;4951247;28;98872;-76
2021/08/19 09:20:11;;;;;;;;;;;;;;;23.57;43.92;100826.91;4954159;28;97219;-75
2021/08/19 09:22:50;;;;;;;;;;;;;;;23.84;43.43;100824.47;4951554;28;97729;-76
2021/08/19 09:25:23;;;;;;;;;;;;;;;23.75;43.47;100815.38;4949361;28;99375;-76
2021/08/19 09:28:07;;;;;;;;;;;;;;;24.34;42.42;100825.31;4949962;28;98841;-77
2021/08/19 09:30:34;;;;;;;;;;;;;;;24.36;42.99;100820.63;4951870;28;96882;-75
2021/08/19 09:33:02;;;;;;;;;;;;;;;24.32;43.11;100826.44;4950693;28;99258;-77
2021/08/19 09:35:30;;;;;;;;;;;;;;;24.60;42.52;100829.19;4956062;28;99274;-76
2021/08/19 09:37:56;;;;;;;;;;;;;;;24.47;43.06;100831.31;4950713;28;99320;-77
2021/08/19 09:40:23;;;;;;;;;;;;;;;24.58;43.00;100831.16;4955231;28;97241;-76
2021/08/19 09:42:50;;;;;;;;;;;;;;;24.66;42.79;100825.03;4950825;28;96993;-77
2021/08/19 09:45:20;;;;;;;;;;;;;;;24.38;43.01;100831.28;4950585;28;99292;-76
2021/08/19 09:47:47;;;;;;;;;;;;;;;23.98;44.06;100826.78;4956560;28;99047;-77
2021/08/19 09:50:14;;;;;;;;;;;;;;;24.17;43.86;100837.63;4956094;28;97457;-77
2021/08/19 09:52:41;;;;;;;;;;;;;;;23.82;44.39;100834.56;4955834;28;98146;-75
2021/08/19 09:55:21;;;;;;;;;;;;;;;23.83;44.61;100847.03;4954907;28;99504;-75
2021/08/19 09:57:49;;;;;;;;;;;;;;;23.53;45.65;100838.97;4950157;28;98792;-76
2021/08/19 10:00:22;;;;;;;;;;;;;;;24.01;44.82;100836.47;4954190;28;96951;-76
2021/08/19 10:02:49;;;;;;;;;;;;;;;24.84;42.95;100844.06;4951721;28;96884;-78
2021/08/19 10:05:16;;;;;;;;;;;;;;;24.52;43.59;100847.06;4962112;28;99340;-76
2021/08/19 10:07:43;;;;;;;;;;;;;;;24.36;44.26;100842.22;4964978;28;96889;-77
2021/08/19 10:10:09;;;;;;;;;;;;;;;24.87;43.16;100841.97;4960729;28;98941;-76
2021/08/19 10:12:36;;;;;;;;;;;;;;;24.97;42.65;100848.22;4962481;28;98701;-75
2021/08/19 10:15:04;;;;;;;;;;;;;;;24.76;43.20;100844.78;4961057;28;97849;-77
2021/08/19 10:17:31;;;;;;;;;;;;;;;24.82;42.86;100844.22;4965556;28;98101;-75
2021/08/19 10:19:57;;;;;;;;;;;;;;;24.40;43.93;100845.50;4970185;28;97975;-76
2021/08/19 10:22:24;;;;;;;;;;;;;;;23.92;44.73;100837.28;4965719;28;96983;-76
2021/08/19 10:24:52;;;;;;;;;;;;;;;23.95;44.94;100835.16;4967610;28;99803;-75
2021/08/19 10:27:20;;;;;;;;;;;;;;;23.82;45.39;100835.41;4965944;28;97739;-76
2021/08/19 10:29:48;;;;;;;;;;;;;;;24.42;43.75;100836.25;4970793;28;96815;-75
2021/08/19 10:32:26;;;;;;;;;;;;;;;25.22;42.18;100838.63;4964633;28;96803;-77
2021/08/19 10:34:56;;;;;;;;;;;;;;;25.65;41.26;100832.69;4966655;28;99696;-76
2021/08/19 10:37:46;;;;;;;;;;;;;;;25.92;40.68;100828.28;4952590;28;101026;-77
2021/08/19 10:40:31;;;;;;;;;;;;;;;26.18;39.61;100834.69;4947806;28;97321;-75
2021/08/19 10:42:58;;;;;;;;;;;;;;;25.17;41.73;100842.78;4952665;28;97492;-76
2021/08/19 10:45:41;;;;;;;;;;;;;;;25.66;40.50;100838.97;4953641;28;97116;-77
2021/08/19 10:48:22;;;;;;;;;;;;;;;25.44;41.12;100840.16;4945557;28;98171;-77
2021/08/19 10:50:49;;;;;;;;;;;;;;;25.52;41.19;100848.38;4950825;28;96918;-78
2021/08/19 10:53:15;;;;;;;;;;;;;;;25.36;41.60;100843.59;4950823;28;96935;-76
2021/08/19 10:55:43;;;;;;;;;;;;;;;25.91;40.38;100849.09;4956074;28;98935;-75
2021/08/19 10:58:22;;;;;;;;;;;;;;;26.19;40.00;100844.47;4949736;28;99188;-75
2021/08/19 11:00:49;;;;;;;;;;;;;;;25.80;39.90;100858.25;4949339;28;98723;-75
2021/08/19 11:03:34;;;;;;;;;;;;;;;26.35;39.06;100838.44;4951687;28;98802;-76
2021/08/19 11:06:02;;;;;;;;;;;;;;;26.06;39.25;100842.16;4950715;28;102940;-75
2021/08/19 11:08:38;;;;;;;;;;;;;;;26.17;39.37;100831.13;4947487;28;99198;-76
2021/08/19 11:11:05;;;;;;;;;;;;;;;26.65;38.63;100831.81;4948840;28;97249;-76
2021/08/19 11:13:34;;;;;;;;;;;;;;;26.73;38.41;100845.41;4949930;28;96955;-77
2021/08/19 11:16:01;;;;;;;;;;;;;;;26.28;38.85;100846.31;4950529;28;100537;-76
2021/08/19 11:18:28;;;;;;;;;;;;;;;26.69;38.44;100841.31;4952463;28;97761;-77
2021/08/19 11:20:54;;;;;;;;;;;;;;;26.96;37.92;100842.09;4948535;28;97345;-77
2021/08/19 11:23:27;;;;;;;;;;;;;;;26.61;38.36;100841.22;4953864;28;96900;-77
2021/08/19 11:25:59;;;;;;;;;;;;;;;26.32;37.88;100836.88;4950452;28;99214;-77
2021/08/19 11:28:33;;;;;;;;;;;;;;;25.09;40.25;100842.66;4907940;28;98425;-78
2021/08/19 11:31:00;;;;;;;;;;;;;;;25.01;39.93;100846.94;4910041;28;97751;-77
2021/08/19 11:33:27;;;;;;;;;;;;;;;25.19;39.68;100848.91;4918222;28;96846;-78
2021/08/19 11:35:54;;;;;;;;;;;;;;;25.37;39.82;100844.44;4912431;28;97678;-78
2021/08/19 11:38:22;;;;;;;;;;;;;;;25.38;39.79;100838.88;4913230;28;98844;-77
2021/08/19 11:40:51;;;;;;;;;;;;;;;25.82;38.70;100844.56;4915200;28;97096;-78
2021/08/19 11:43:24;;;;;;;;;;;;;;;25.55;38.62;100842.66;4914309;28;97224;-77
2021/08/19 11:45:51;;;;;;;;;;;;;;;26.32;37.67;100834.16;4913739;28;101237;-77
2021/08/19 11:48:21;;;;;;;;;;;;;;;26.94;36.49;100843.25;4910984;28;99148;-77
2021/08/19 11:50:54;;;;;;;;;;;;;;;27.10;36.12;100845.25;4908655;28;98043;-77
2021/08/19 11:53:21;;;;;;;;;;;;;;;27.20;36.17;100854.13;4926988;28;96920;-78
2021/08/19 11:55:48;;;;;;;;;;;;;;;27.11;35.70;100845.06;4913576;28;99443;-76
2021/08/19 11:58:16;;;;;;;;;;;;;;;27.25;35.39;100851.75;4907278;28;98883;-78
2021/08/19 12:00:56;;;;;;;;;;;;;;;27.11;35.77;100855.09;4921811;28;98608;-77
2021/08/19 12:03:22;;;;;;;;;;;;;;;27.30;35.56;100850.31;4921033;28;96953;-78
2021/08/19 12:06:03;;;;;;;;;;;;;;;27.12;35.88;100859.47;4933011;28;97797;-77
2021/08/19 12:08:30;;;;;;;;;;;;;;;27.62;35.67;100865.97;4934010;28;98066;-78
2021/08/19 12:10:58;;;;;;;;;;;;;;;27.44;35.84;100861.59;4926595;28;96887;-77
2021/08/19 12:13:25;;;;;;;;;;;;;;;26.92;37.09;100861.53;4913874;28;97797;-77
2021/08/19 12:15:52;;;;;;;;;;;;;;;27.11;37.15;100863.22;4915013;28;97469;-76
2021/08/19 12:18:22;;;;;;;;;;;;;;;27.36;36.50;100865.09;4914201;28;98891;-77
2021/08/19 12:20:49;;;;;;;;;;;;;;;27.28;36.40;100868.59;4908462;28;97531;-77
2021/08/19 12:23:19;;;;;;;;;;;;;;;27.36;36.20;100860.53;4915691;28;98074;-79
2021/08/19 12:25:46;;;;;;;;;;;;;;;27.15;36.42;100857.31;4912295;28;99158;-77
2021/08/19 12:28:12;;;;;;;;;;;;;;;27.72;35.57;100854.97;4949055;28;98962;-77
2021/08/19 12:30:53;;;;;;;;;;;;;;;26.98;36.83;100850.91;4949176;28;96901;-77
2021/08/19 12:33:28;;;;;;;;;;;;;;;26.64;37.08;100857.19;4950480;28;97138;-77
2021/08/19 12:36:08;;;;;;;;;;;;;;;26.87;37.30;100861.13;4949806;28;99024;-78
2021/08/19 12:38:34;;;;;;;;;;;;;;;26.43;37.85;100857.50;4951442;28;99430;-76